METAR Data
IDs: Format: Raw Decoded Include TAF

Data at: 0316 UTC 25 Feb 2021

ETSN 250220Z 00000KT 0500 PRFG 00/M00 Q1030 RED